sensor_id;sensor_type;location;lat;lon;timestamp;P1;durP1;ratioP1;P2;durP2;ratioP2
78670;SDS011;68277;52.724;6.516;2023-08-06T00:02:22;5.97;;;3.00;;
78670;SDS011;68277;52.724;6.516;2023-08-06T00:04:48;7.72;;;3.83;;
78670;SDS011;68277;52.724;6.516;2023-08-06T00:07:13;5.40;;;2.90;;
78670;SDS011;68277;52.724;6.516;2023-08-06T00:09:39;6.63;;;3.92;;
78670;SDS011;68277;52.724;6.516;2023-08-06T00:12:04;3.65;;;2.40;;
78670;SDS011;68277;52.724;6.516;2023-08-06T00:14:30;6.70;;;3.50;;
78670;SDS011;68277;52.724;6.516;2023-08-06T00:16:56;5.38;;;2.90;;
78670;SDS011;68277;52.724;6.516;2023-08-06T00:19:21;7.20;;;3.20;;
78670;SDS011;68277;52.724;6.516;2023-08-06T00:21:47;4.88;;;2.53;;
78670;SDS011;68277;52.724;6.516;2023-08-06T00:24:12;5.78;;;3.20;;
78670;SDS011;68277;52.724;6.516;2023-08-06T00:26:38;6.15;;;3.60;;
78670;SDS011;68277;52.724;6.516;2023-08-06T00:29:03;6.35;;;3.67;;
78670;SDS011;68277;52.724;6.516;2023-08-06T00:31:29;7.10;;;3.05;;
78670;SDS011;68277;52.724;6.516;2023-08-06T00:33:54;4.10;;;2.58;;
78670;SDS011;68277;52.724;6.516;2023-08-06T00:36:20;5.50;;;3.42;;
78670;SDS011;68277;52.724;6.516;2023-08-06T00:38:45;4.47;;;2.63;;
78670;SDS011;68277;52.724;6.516;2023-08-06T00:41:11;5.35;;;2.97;;
78670;SDS011;68277;52.724;6.516;2023-08-06T00:43:36;5.57;;;3.53;;
78670;SDS011;68277;52.724;6.516;2023-08-06T00:46:02;5.75;;;3.03;;
78670;SDS011;68277;52.724;6.516;2023-08-06T00:48:29;5.68;;;3.00;;
78670;SDS011;68277;52.724;6.516;2023-08-06T00:50:56;5.13;;;3.47;;
78670;SDS011;68277;52.724;6.516;2023-08-06T00:53:22;6.82;;;3.67;;
78670;SDS011;68277;52.724;6.516;2023-08-06T00:55:48;6.28;;;3.22;;
78670;SDS011;68277;52.724;6.516;2023-08-06T00:58:13;4.53;;;1.98;;
78670;SDS011;68277;52.724;6.516;2023-08-06T01:00:40;4.25;;;2.45;;
78670;SDS011;68277;52.724;6.516;2023-08-06T01:03:06;4.60;;;2.80;;
78670;SDS011;68277;52.724;6.516;2023-08-06T01:05:32;4.10;;;2.08;;
78670;SDS011;68277;52.724;6.516;2023-08-06T01:11:14;3.78;;;2.33;;
78670;SDS011;68277;52.724;6.516;2023-08-06T01:14:02;5.65;;;3.10;;
78670;SDS011;68277;52.724;6.516;2023-08-06T01:16:34;5.95;;;3.10;;
78670;SDS011;68277;52.724;6.516;2023-08-06T01:19:00;4.35;;;2.45;;
78670;SDS011;68277;52.724;6.516;2023-08-06T01:21:26;4.10;;;2.70;;
78670;SDS011;68277;52.724;6.516;2023-08-06T01:23:51;5.82;;;3.92;;
78670;SDS011;68277;52.724;6.516;2023-08-06T01:29:31;6.07;;;2.70;;
78670;SDS011;68277;52.724;6.516;2023-08-06T01:31:59;3.97;;;2.03;;
78670;SDS011;68277;52.724;6.516;2023-08-06T01:34:25;3.78;;;2.17;;
78670;SDS011;68277;52.724;6.516;2023-08-06T01:36:54;6.22;;;3.20;;
78670;SDS011;68277;52.724;6.516;2023-08-06T01:39:19;8.18;;;3.75;;
78670;SDS011;68277;52.724;6.516;2023-08-06T01:41:48;4.00;;;2.20;;
78670;SDS011;68277;52.724;6.516;2023-08-06T01:44:14;5.10;;;2.42;;
78670;SDS011;68277;52.724;6.516;2023-08-06T01:46:40;5.75;;;2.88;;
78670;SDS011;68277;52.724;6.516;2023-08-06T01:49:06;7.75;;;4.22;;
78670;SDS011;68277;52.724;6.516;2023-08-06T01:51:31;6.25;;;3.00;;
78670;SDS011;68277;52.724;6.516;2023-08-06T01:53:57;5.18;;;2.78;;
78670;SDS011;68277;52.724;6.516;2023-08-06T01:56:22;7.65;;;3.35;;
78670;SDS011;68277;52.724;6.516;2023-08-06T01:58:48;7.75;;;3.83;;
78670;SDS011;68277;52.724;6.516;2023-08-06T02:01:13;5.70;;;3.17;;
78670;SDS011;68277;52.724;6.516;2023-08-06T02:03:39;5.80;;;3.13;;
78670;SDS011;68277;52.724;6.516;2023-08-06T02:06:04;6.50;;;3.63;;
78670;SDS011;68277;52.724;6.516;2023-08-06T02:08:30;3.17;;;2.50;;
78670;SDS011;68277;52.724;6.516;2023-08-06T02:10:55;5.35;;;3.40;;
78670;SDS011;68277;52.724;6.516;2023-08-06T02:13:21;3.55;;;2.40;;
78670;SDS011;68277;52.724;6.516;2023-08-06T02:15:46;5.10;;;2.53;;
78670;SDS011;68277;52.724;6.516;2023-08-06T02:18:15;5.80;;;3.67;;
78670;SDS011;68277;52.724;6.516;2023-08-06T02:20:41;5.32;;;2.90;;
78670;SDS011;68277;52.724;6.516;2023-08-06T02:23:08;4.75;;;2.55;;
78670;SDS011;68277;52.724;6.516;2023-08-06T02:25:34;4.45;;;1.92;;
78670;SDS011;68277;52.724;6.516;2023-08-06T02:28:00;5.53;;;2.83;;
78670;SDS011;68277;52.724;6.516;2023-08-06T02:30:25;4.38;;;2.50;;
78670;SDS011;68277;52.724;6.516;2023-08-06T02:32:51;4.80;;;2.58;;
78670;SDS011;68277;52.724;6.516;2023-08-06T02:35:17;3.33;;;2.30;;
78670;SDS011;68277;52.724;6.516;2023-08-06T02:37:44;5.97;;;3.35;;
78670;SDS011;68277;52.724;6.516;2023-08-06T02:40:10;3.38;;;2.35;;
78670;SDS011;68277;52.724;6.516;2023-08-06T02:42:35;5.07;;;3.08;;
78670;SDS011;68277;52.724;6.516;2023-08-06T02:45:01;6.15;;;3.35;;
78670;SDS011;68277;52.724;6.516;2023-08-06T02:47:28;5.45;;;3.25;;
78670;SDS011;68277;52.724;6.516;2023-08-06T02:49:53;8.32;;;4.70;;
78670;SDS011;68277;52.724;6.516;2023-08-06T02:52:19;6.22;;;3.35;;
78670;SDS011;68277;52.724;6.516;2023-08-06T02:54:45;8.25;;;3.22;;
78670;SDS011;68277;52.724;6.516;2023-08-06T02:57:13;5.88;;;4.30;;
78670;SDS011;68277;52.724;6.516;2023-08-06T02:59:38;5.57;;;3.13;;
78670;SDS011;68277;52.724;6.516;2023-08-06T03:02:08;5.63;;;3.25;;
78670;SDS011;68277;52.724;6.516;2023-08-06T03:04:56;6.75;;;3.13;;
78670;SDS011;68277;52.724;6.516;2023-08-06T03:07:26;3.13;;;2.05;;
78670;SDS011;68277;52.724;6.516;2023-08-06T03:09:56;3.95;;;2.15;;
78670;SDS011;68277;52.724;6.516;2023-08-06T03:12:22;3.10;;;2.17;;
78670;SDS011;68277;52.724;6.516;2023-08-06T03:14:48;5.55;;;2.85;;
78670;SDS011;68277;52.724;6.516;2023-08-06T03:17:14;6.05;;;3.50;;
78670;SDS011;68277;52.724;6.516;2023-08-06T03:19:40;5.93;;;3.15;;
78670;SDS011;68277;52.724;6.516;2023-08-06T03:22:06;4.55;;;2.42;;
78670;SDS011;68277;52.724;6.516;2023-08-06T03:24:33;5.28;;;2.92;;
78670;SDS011;68277;52.724;6.516;2023-08-06T03:26:59;9.68;;;4.03;;
78670;SDS011;68277;52.724;6.516;2023-08-06T03:29:25;5.43;;;3.47;;
78670;SDS011;68277;52.724;6.516;2023-08-06T03:31:52;4.93;;;3.20;;
78670;SDS011;68277;52.724;6.516;2023-08-06T03:34:17;6.25;;;3.28;;
78670;SDS011;68277;52.724;6.516;2023-08-06T03:36:44;6.13;;;3.95;;
78670;SDS011;68277;52.724;6.516;2023-08-06T03:39:09;5.00;;;3.20;;
78670;SDS011;68277;52.724;6.516;2023-08-06T03:41:36;6.07;;;2.80;;
78670;SDS011;68277;52.724;6.516;2023-08-06T03:44:01;4.72;;;2.92;;
78670;SDS011;68277;52.724;6.516;2023-08-06T03:46:29;5.25;;;2.80;;
78670;SDS011;68277;52.724;6.516;2023-08-06T03:48:57;8.55;;;3.92;;
78670;SDS011;68277;52.724;6.516;2023-08-06T03:51:24;3.42;;;1.73;;
78670;SDS011;68277;52.724;6.516;2023-08-06T03:56:16;6.07;;;3.03;;
78670;SDS011;68277;52.724;6.516;2023-08-06T03:58:42;7.25;;;3.65;;
78670;SDS011;68277;52.724;6.516;2023-08-06T04:01:07;3.92;;;2.20;;
78670;SDS011;68277;52.724;6.516;2023-08-06T04:03:39;4.38;;;2.20;;
78670;SDS011;68277;52.724;6.516;2023-08-06T04:06:05;4.97;;;3.10;;
78670;SDS011;68277;52.724;6.516;2023-08-06T04:08:31;6.72;;;2.00;;
78670;SDS011;68277;52.724;6.516;2023-08-06T04:10:57;3.38;;;1.80;;
78670;SDS011;68277;52.724;6.516;2023-08-06T04:13:22;5.55;;;2.58;;
78670;SDS011;68277;52.724;6.516;2023-08-06T04:15:48;3.80;;;2.40;;
78670;SDS011;68277;52.724;6.516;2023-08-06T04:18:14;4.88;;;2.72;;
78670;SDS011;68277;52.724;6.516;2023-08-06T04:20:44;4.07;;;2.80;;
78670;SDS011;68277;52.724;6.516;2023-08-06T04:23:10;4.72;;;2.78;;
78670;SDS011;68277;52.724;6.516;2023-08-06T04:25:37;4.10;;;2.53;;
78670;SDS011;68277;52.724;6.516;2023-08-06T04:28:02;5.05;;;3.40;;
78670;SDS011;68277;52.724;6.516;2023-08-06T04:30:28;6.57;;;3.50;;
78670;SDS011;68277;52.724;6.516;2023-08-06T04:32:56;7.20;;;4.00;;
78670;SDS011;68277;52.724;6.516;2023-08-06T04:35:24;6.47;;;3.70;;
78670;SDS011;68277;52.724;6.516;2023-08-06T04:37:50;6.15;;;3.25;;
78670;SDS011;68277;52.724;6.516;2023-08-06T04:40:16;7.68;;;2.90;;
78670;SDS011;68277;52.724;6.516;2023-08-06T04:45:08;3.92;;;2.20;;
78670;SDS011;68277;52.724;6.516;2023-08-06T04:47:34;6.75;;;2.38;;
78670;SDS011;68277;52.724;6.516;2023-08-06T04:50:00;6.03;;;3.55;;
78670;SDS011;68277;52.724;6.516;2023-08-06T04:52:26;3.05;;;2.10;;
78670;SDS011;68277;52.724;6.516;2023-08-06T04:54:53;3.60;;;1.98;;
78670;SDS011;68277;52.724;6.516;2023-08-06T04:57:19;3.78;;;2.65;;
78670;SDS011;68277;52.724;6.516;2023-08-06T04:59:45;3.88;;;2.38;;
78670;SDS011;68277;52.724;6.516;2023-08-06T05:02:10;6.40;;;3.22;;
78670;SDS011;68277;52.724;6.516;2023-08-06T05:04:36;3.03;;;1.70;;
78670;SDS011;68277;52.724;6.516;2023-08-06T05:07:01;4.07;;;2.25;;
78670;SDS011;68277;52.724;6.516;2023-08-06T05:09:27;6.40;;;2.33;;
78670;SDS011;68277;52.724;6.516;2023-08-06T05:11:53;2.63;;;1.95;;
78670;SDS011;68277;52.724;6.516;2023-08-06T05:14:18;3.28;;;1.92;;
78670;SDS011;68277;52.724;6.516;2023-08-06T05:16:43;3.42;;;1.42;;
78670;SDS011;68277;52.724;6.516;2023-08-06T05:19:09;3.38;;;2.38;;
78670;SDS011;68277;52.724;6.516;2023-08-06T05:21:34;4.10;;;2.40;;
78670;SDS011;68277;52.724;6.516;2023-08-06T05:24:00;3.45;;;2.08;;
78670;SDS011;68277;52.724;6.516;2023-08-06T05:26:25;4.20;;;2.47;;
78670;SDS011;68277;52.724;6.516;2023-08-06T05:28:51;6.38;;;3.08;;
78670;SDS011;68277;52.724;6.516;2023-08-06T05:31:16;2.95;;;1.95;;
78670;SDS011;68277;52.724;6.516;2023-08-06T05:33:42;5.93;;;3.20;;
78670;SDS011;68277;52.724;6.516;2023-08-06T05:36:07;7.75;;;4.00;;
78670;SDS011;68277;52.724;6.516;2023-08-06T05:38:33;4.25;;;2.67;;
78670;SDS011;68277;52.724;6.516;2023-08-06T05:40:58;4.07;;;2.00;;
78670;SDS011;68277;52.724;6.516;2023-08-06T05:43:24;4.65;;;2.83;;
78670;SDS011;68277;52.724;6.516;2023-08-06T05:45:49;5.90;;;2.65;;
78670;SDS011;68277;52.724;6.516;2023-08-06T05:48:15;3.58;;;2.03;;
78670;SDS011;68277;52.724;6.516;2023-08-06T05:50:41;4.15;;;2.47;;
78670;SDS011;68277;52.724;6.516;2023-08-06T05:53:07;5.55;;;2.80;;
78670;SDS011;68277;52.724;6.516;2023-08-06T05:55:33;4.93;;;2.45;;
78670;SDS011;68277;52.724;6.516;2023-08-06T05:57:59;3.22;;;2.10;;
78670;SDS011;68277;52.724;6.516;2023-08-06T06:00:24;5.43;;;3.40;;
78670;SDS011;68277;52.724;6.516;2023-08-06T06:02:50;4.00;;;2.55;;
78670;SDS011;68277;52.724;6.516;2023-08-06T06:05:17;4.15;;;2.50;;
78670;SDS011;68277;52.724;6.516;2023-08-06T06:07:42;7.72;;;3.63;;
78670;SDS011;68277;52.724;6.516;2023-08-06T06:10:08;5.18;;;4.00;;
78670;SDS011;68277;52.724;6.516;2023-08-06T06:12:34;4.07;;;2.33;;
78670;SDS011;68277;52.724;6.516;2023-08-06T06:15:00;5.18;;;2.50;;
78670;SDS011;68277;52.724;6.516;2023-08-06T06:17:26;3.83;;;2.38;;
78670;SDS011;68277;52.724;6.516;2023-08-06T06:19:52;6.07;;;4.03;;
78670;SDS011;68277;52.724;6.516;2023-08-06T06:22:18;3.95;;;2.78;;
78670;SDS011;68277;52.724;6.516;2023-08-06T06:24:43;4.03;;;2.30;;
78670;SDS011;68277;52.724;6.516;2023-08-06T06:27:09;7.32;;;4.32;;
78670;SDS011;68277;52.724;6.516;2023-08-06T06:29:35;5.18;;;2.88;;
78670;SDS011;68277;52.724;6.516;2023-08-06T06:32:01;5.80;;;3.47;;
78670;SDS011;68277;52.724;6.516;2023-08-06T06:34:28;3.05;;;2.20;;
78670;SDS011;68277;52.724;6.516;2023-08-06T06:36:53;6.40;;;3.33;;
78670;SDS011;68277;52.724;6.516;2023-08-06T06:39:22;6.95;;;3.92;;
78670;SDS011;68277;52.724;6.516;2023-08-06T06:41:48;5.63;;;3.25;;
78670;SDS011;68277;52.724;6.516;2023-08-06T06:44:23;6.65;;;3.45;;
78670;SDS011;68277;52.724;6.516;2023-08-06T06:46:48;7.72;;;4.40;;
78670;SDS011;68277;52.724;6.516;2023-08-06T06:49:13;6.97;;;4.28;;
78670;SDS011;68277;52.724;6.516;2023-08-06T06:51:39;7.25;;;4.55;;
78670;SDS011;68277;52.724;6.516;2023-08-06T06:54:04;5.30;;;3.85;;
78670;SDS011;68277;52.724;6.516;2023-08-06T06:56:30;7.25;;;3.47;;
78670;SDS011;68277;52.724;6.516;2023-08-06T06:58:57;6.18;;;4.10;;
78670;SDS011;68277;52.724;6.516;2023-08-06T07:01:22;14.38;;;5.50;;
78670;SDS011;68277;52.724;6.516;2023-08-06T07:03:50;9.63;;;5.47;;
78670;SDS011;68277;52.724;6.516;2023-08-06T07:06:16;6.10;;;4.63;;
78670;SDS011;68277;52.724;6.516;2023-08-06T07:08:44;5.22;;;3.05;;
78670;SDS011;68277;52.724;6.516;2023-08-06T07:11:10;5.38;;;3.70;;
78670;SDS011;68277;52.724;6.516;2023-08-06T07:13:35;4.68;;;3.30;;
78670;SDS011;68277;52.724;6.516;2023-08-06T07:16:01;6.53;;;3.90;;
78670;SDS011;68277;52.724;6.516;2023-08-06T07:18:26;7.38;;;4.75;;
78670;SDS011;68277;52.724;6.516;2023-08-06T07:20:52;6.40;;;4.18;;
78670;SDS011;68277;52.724;6.516;2023-08-06T07:23:22;9.70;;;5.80;;
78670;SDS011;68277;52.724;6.516;2023-08-06T07:25:49;10.13;;;6.65;;
78670;SDS011;68277;52.724;6.516;2023-08-06T07:28:16;12.80;;;7.35;;
78670;SDS011;68277;52.724;6.516;2023-08-06T07:30:42;5.15;;;2.95;;
78670;SDS011;68277;52.724;6.516;2023-08-06T07:33:09;6.25;;;3.72;;
78670;SDS011;68277;52.724;6.516;2023-08-06T07:35:35;5.43;;;3.95;;
78670;SDS011;68277;52.724;6.516;2023-08-06T07:38:01;10.88;;;5.38;;
78670;SDS011;68277;52.724;6.516;2023-08-06T07:40:26;6.18;;;3.45;;
78670;SDS011;68277;52.724;6.516;2023-08-06T07:42:52;7.72;;;4.38;;
78670;SDS011;68277;52.724;6.516;2023-08-06T07:45:18;11.70;;;5.93;;
78670;SDS011;68277;52.724;6.516;2023-08-06T07:47:43;5.90;;;3.45;;
78670;SDS011;68277;52.724;6.516;2023-08-06T07:50:09;8.43;;;4.75;;
78670;SDS011;68277;52.724;6.516;2023-08-06T07:52:35;13.93;;;6.70;;
78670;SDS011;68277;52.724;6.516;2023-08-06T07:55:00;6.68;;;4.47;;
78670;SDS011;68277;52.724;6.516;2023-08-06T07:57:30;7.88;;;4.47;;
78670;SDS011;68277;52.724;6.516;2023-08-06T07:59:59;6.55;;;4.03;;
78670;SDS011;68277;52.724;6.516;2023-08-06T08:02:25;7.80;;;4.55;;
78670;SDS011;68277;52.724;6.516;2023-08-06T08:04:51;9.40;;;4.50;;
78670;SDS011;68277;52.724;6.516;2023-08-06T08:07:17;6.03;;;3.67;;
78670;SDS011;68277;52.724;6.516;2023-08-06T08:09:43;9.30;;;4.75;;
78670;SDS011;68277;52.724;6.516;2023-08-06T08:12:08;6.43;;;4.35;;
78670;SDS011;68277;52.724;6.516;2023-08-06T08:14:34;6.95;;;3.40;;
78670;SDS011;68277;52.724;6.516;2023-08-06T08:17:04;9.55;;;4.75;;
78670;SDS011;68277;52.724;6.516;2023-08-06T08:19:33;8.75;;;4.63;;
78670;SDS011;68277;52.724;6.516;2023-08-06T08:21:59;6.30;;;3.85;;
78670;SDS011;68277;52.724;6.516;2023-08-06T08:24:25;7.05;;;3.78;;
78670;SDS011;68277;52.724;6.516;2023-08-06T08:26:51;5.57;;;3.38;;
78670;SDS011;68277;52.724;6.516;2023-08-06T08:29:17;4.82;;;3.40;;
78670;SDS011;68277;52.724;6.516;2023-08-06T08:31:42;7.63;;;4.57;;
78670;SDS011;68277;52.724;6.516;2023-08-06T08:34:14;5.25;;;3.13;;
78670;SDS011;68277;52.724;6.516;2023-08-06T08:36:41;9.60;;;4.72;;
78670;SDS011;68277;52.724;6.516;2023-08-06T08:39:06;6.15;;;3.72;;
78670;SDS011;68277;52.724;6.516;2023-08-06T08:41:32;3.67;;;2.53;;
78670;SDS011;68277;52.724;6.516;2023-08-06T08:43:58;8.63;;;4.78;;
78670;SDS011;68277;52.724;6.516;2023-08-06T08:46:31;5.15;;;3.15;;
78670;SDS011;68277;52.724;6.516;2023-08-06T08:48:58;3.72;;;2.60;;
78670;SDS011;68277;52.724;6.516;2023-08-06T08:51:28;6.15;;;3.85;;
78670;SDS011;68277;52.724;6.516;2023-08-06T08:53:56;7.57;;;4.90;;
78670;SDS011;68277;52.724;6.516;2023-08-06T08:56:22;5.88;;;3.33;;
78670;SDS011;68277;52.724;6.516;2023-08-06T08:58:49;4.53;;;3.35;;
78670;SDS011;68277;52.724;6.516;2023-08-06T09:01:15;5.88;;;3.58;;
78670;SDS011;68277;52.724;6.516;2023-08-06T09:03:43;5.50;;;3.75;;
78670;SDS011;68277;52.724;6.516;2023-08-06T09:06:10;7.95;;;4.15;;
78670;SDS011;68277;52.724;6.516;2023-08-06T09:08:39;7.55;;;4.20;;
78670;SDS011;68277;52.724;6.516;2023-08-06T09:11:08;6.10;;;3.80;;
78670;SDS011;68277;52.724;6.516;2023-08-06T09:13:37;6.13;;;3.78;;
78670;SDS011;68277;52.724;6.516;2023-08-06T09:16:03;4.78;;;3.13;;
78670;SDS011;68277;52.724;6.516;2023-08-06T09:18:29;5.45;;;3.92;;
78670;SDS011;68277;52.724;6.516;2023-08-06T09:20:56;3.90;;;2.50;;
78670;SDS011;68277;52.724;6.516;2023-08-06T09:23:27;6.85;;;4.28;;
78670;SDS011;68277;52.724;6.516;2023-08-06T09:25:55;4.57;;;3.08;;
78670;SDS011;68277;52.724;6.516;2023-08-06T09:28:21;6.57;;;3.53;;
78670;SDS011;68277;52.724;6.516;2023-08-06T09:30:49;6.20;;;3.25;;
78670;SDS011;68277;52.724;6.516;2023-08-06T09:33:18;7.53;;;4.18;;
78670;SDS011;68277;52.724;6.516;2023-08-06T09:35:45;5.00;;;3.72;;
78670;SDS011;68277;52.724;6.516;2023-08-06T09:38:11;5.22;;;3.33;;
78670;SDS011;68277;52.724;6.516;2023-08-06T09:40:37;5.55;;;3.83;;
78670;SDS011;68277;52.724;6.516;2023-08-06T09:43:03;7.15;;;4.03;;
78670;SDS011;68277;52.724;6.516;2023-08-06T09:45:36;6.25;;;4.00;;
78670;SDS011;68277;52.724;6.516;2023-08-06T09:48:03;7.60;;;4.32;;
78670;SDS011;68277;52.724;6.516;2023-08-06T09:50:31;7.53;;;3.55;;
78670;SDS011;68277;52.724;6.516;2023-08-06T09:53:07;5.28;;;3.67;;
78670;SDS011;68277;52.724;6.516;2023-08-06T09:55:33;4.63;;;2.85;;
78670;SDS011;68277;52.724;6.516;2023-08-06T09:57:59;6.53;;;4.15;;
78670;SDS011;68277;52.724;6.516;2023-08-06T10:00:26;4.30;;;2.88;;
78670;SDS011;68277;52.724;6.516;2023-08-06T10:02:53;6.28;;;3.75;;
78670;SDS011;68277;52.724;6.516;2023-08-06T10:05:22;8.65;;;4.97;;
78670;SDS011;68277;52.724;6.516;2023-08-06T10:07:48;4.70;;;3.45;;
78670;SDS011;68277;52.724;6.516;2023-08-06T10:10:16;4.13;;;3.20;;
78670;SDS011;68277;52.724;6.516;2023-08-06T10:12:46;5.63;;;3.28;;
78670;SDS011;68277;52.724;6.516;2023-08-06T10:15:15;8.00;;;4.45;;
78670;SDS011;68277;52.724;6.516;2023-08-06T10:17:43;3.88;;;3.05;;
78670;SDS011;68277;52.724;6.516;2023-08-06T10:20:11;4.97;;;3.53;;
78670;SDS011;68277;52.724;6.516;2023-08-06T10:22:38;3.75;;;2.38;;
78670;SDS011;68277;52.724;6.516;2023-08-06T10:25:08;4.40;;;3.35;;
78670;SDS011;68277;52.724;6.516;2023-08-06T10:27:41;5.13;;;3.53;;
78670;SDS011;68277;52.724;6.516;2023-08-06T10:32:51;5.15;;;3.38;;
78670;SDS011;68277;52.724;6.516;2023-08-06T10:35:27;5.28;;;3.47;;
78670;SDS011;68277;52.724;6.516;2023-08-06T10:38:09;6.55;;;3.40;;
78670;SDS011;68277;52.724;6.516;2023-08-06T10:40:35;4.28;;;2.88;;
78670;SDS011;68277;52.724;6.516;2023-08-06T10:43:02;4.40;;;3.00;;
78670;SDS011;68277;52.724;6.516;2023-08-06T10:45:28;6.43;;;3.00;;
78670;SDS011;68277;52.724;6.516;2023-08-06T10:47:55;4.72;;;3.28;;
78670;SDS011;68277;52.724;6.516;2023-08-06T10:50:24;3.65;;;2.30;;
78670;SDS011;68277;52.724;6.516;2023-08-06T10:52:50;3.85;;;2.95;;
78670;SDS011;68277;52.724;6.516;2023-08-06T10:57:53;3.05;;;2.28;;
78670;SDS011;68277;52.724;6.516;2023-08-06T11:00:20;3.17;;;2.33;;
78670;SDS011;68277;52.724;6.516;2023-08-06T11:02:48;4.25;;;2.70;;
78670;SDS011;68277;52.724;6.516;2023-08-06T11:05:14;3.75;;;2.85;;
78670;SDS011;68277;52.724;6.516;2023-08-06T11:07:40;5.07;;;3.33;;
78670;SDS011;68277;52.724;6.516;2023-08-06T11:10:09;4.78;;;2.75;;
78670;SDS011;68277;52.724;6.516;2023-08-06T11:12:36;4.78;;;2.50;;
78670;SDS011;68277;52.724;6.516;2023-08-06T11:15:02;3.10;;;2.30;;
78670;SDS011;68277;52.724;6.516;2023-08-06T11:19:55;5.72;;;2.45;;
78670;SDS011;68277;52.724;6.516;2023-08-06T11:22:21;3.95;;;2.67;;
78670;SDS011;68277;52.724;6.516;2023-08-06T11:24:47;3.60;;;2.25;;
78670;SDS011;68277;52.724;6.516;2023-08-06T11:27:14;3.25;;;2.30;;
78670;SDS011;68277;52.724;6.516;2023-08-06T11:29:40;3.97;;;2.08;;
78670;SDS011;68277;52.724;6.516;2023-08-06T11:34:33;3.83;;;2.20;;
78670;SDS011;68277;52.724;6.516;2023-08-06T11:36:58;3.42;;;2.33;;
78670;SDS011;68277;52.724;6.516;2023-08-06T11:39:24;5.45;;;3.25;;
78670;SDS011;68277;52.724;6.516;2023-08-06T11:41:50;3.55;;;2.17;;
78670;SDS011;68277;52.724;6.516;2023-08-06T11:44:16;3.47;;;2.20;;
78670;SDS011;68277;52.724;6.516;2023-08-06T11:46:54;2.35;;;1.67;;
78670;SDS011;68277;52.724;6.516;2023-08-06T11:49:48;2.63;;;1.80;;
78670;SDS011;68277;52.724;6.516;2023-08-06T11:52:14;3.05;;;1.92;;
78670;SDS011;68277;52.724;6.516;2023-08-06T11:54:41;3.13;;;2.00;;
78670;SDS011;68277;52.724;6.516;2023-08-06T11:57:08;3.65;;;2.03;;
78670;SDS011;68277;52.724;6.516;2023-08-06T11:59:36;2.40;;;1.88;;
78670;SDS011;68277;52.724;6.516;2023-08-06T12:02:03;2.55;;;1.90;;
78670;SDS011;68277;52.724;6.516;2023-08-06T12:07:32;2.72;;;1.83;;
78670;SDS011;68277;52.724;6.516;2023-08-06T12:10:02;2.88;;;2.30;;
78670;SDS011;68277;52.724;6.516;2023-08-06T12:12:28;4.63;;;1.55;;
78670;SDS011;68277;52.724;6.516;2023-08-06T12:14:54;3.85;;;1.63;;
78670;SDS011;68277;52.724;6.516;2023-08-06T12:17:20;2.78;;;1.45;;
78670;SDS011;68277;52.724;6.516;2023-08-06T12:19:45;2.28;;;1.13;;
78670;SDS011;68277;52.724;6.516;2023-08-06T12:22:18;2.70;;;1.60;;
78670;SDS011;68277;52.724;6.516;2023-08-06T12:24:44;2.95;;;1.67;;
78670;SDS011;68277;52.724;6.516;2023-08-06T12:27:10;1.85;;;1.30;;
78670;SDS011;68277;52.724;6.516;2023-08-06T12:29:47;3.10;;;1.63;;
78670;SDS011;68277;52.724;6.516;2023-08-06T12:32:13;7.07;;;2.03;;
78670;SDS011;68277;52.724;6.516;2023-08-06T12:34:39;1.95;;;1.30;;
78670;SDS011;68277;52.724;6.516;2023-08-06T12:37:06;2.75;;;1.85;;
78670;SDS011;68277;52.724;6.516;2023-08-06T12:39:32;3.35;;;1.38;;
78670;SDS011;68277;52.724;6.516;2023-08-06T12:42:00;2.42;;;1.10;;
78670;SDS011;68277;52.724;6.516;2023-08-06T12:44:26;1.58;;;1.30;;
78670;SDS011;68277;52.724;6.516;2023-08-06T12:46:52;2.63;;;1.63;;
78670;SDS011;68277;52.724;6.516;2023-08-06T12:49:18;2.47;;;1.50;;
78670;SDS011;68277;52.724;6.516;2023-08-06T12:51:46;3.00;;;1.67;;
78670;SDS011;68277;52.724;6.516;2023-08-06T12:54:12;3.60;;;1.77;;
78670;SDS011;68277;52.724;6.516;2023-08-06T12:56:38;3.38;;;1.70;;
78670;SDS011;68277;52.724;6.516;2023-08-06T12:59:03;1.98;;;1.50;;
78670;SDS011;68277;52.724;6.516;2023-08-06T13:01:29;3.08;;;1.75;;
78670;SDS011;68277;52.724;6.516;2023-08-06T13:03:54;2.55;;;1.67;;
78670;SDS011;68277;52.724;6.516;2023-08-06T13:06:20;3.15;;;2.03;;
78670;SDS011;68277;52.724;6.516;2023-08-06T13:08:45;3.78;;;1.50;;
78670;SDS011;68277;52.724;6.516;2023-08-06T13:11:11;3.80;;;2.67;;
78670;SDS011;68277;52.724;6.516;2023-08-06T13:13:37;5.05;;;2.80;;
78670;SDS011;68277;52.724;6.516;2023-08-06T13:16:04;6.15;;;2.10;;
78670;SDS011;68277;52.724;6.516;2023-08-06T13:18:29;2.92;;;1.45;;
78670;SDS011;68277;52.724;6.516;2023-08-06T13:20:56;4.85;;;1.98;;
78670;SDS011;68277;52.724;6.516;2023-08-06T13:23:21;3.35;;;2.28;;
78670;SDS011;68277;52.724;6.516;2023-08-06T13:25:47;2.50;;;1.65;;
78670;SDS011;68277;52.724;6.516;2023-08-06T13:28:13;3.40;;;2.20;;
78670;SDS011;68277;52.724;6.516;2023-08-06T13:30:41;3.75;;;1.70;;
78670;SDS011;68277;52.724;6.516;2023-08-06T13:33:07;4.13;;;1.90;;
78670;SDS011;68277;52.724;6.516;2023-08-06T13:35:33;3.13;;;2.00;;
78670;SDS011;68277;52.724;6.516;2023-08-06T13:37:59;3.50;;;2.30;;
78670;SDS011;68277;52.724;6.516;2023-08-06T13:40:27;3.95;;;2.20;;
78670;SDS011;68277;52.724;6.516;2023-08-06T13:42:53;5.10;;;2.13;;
78670;SDS011;68277;52.724;6.516;2023-08-06T13:45:19;3.63;;;1.92;;
78670;SDS011;68277;52.724;6.516;2023-08-06T13:47:44;4.00;;;2.35;;
78670;SDS011;68277;52.724;6.516;2023-08-06T13:50:10;2.90;;;1.52;;
78670;SDS011;68277;52.724;6.516;2023-08-06T13:52:35;4.18;;;1.80;;
78670;SDS011;68277;52.724;6.516;2023-08-06T13:55:02;3.10;;;1.95;;
78670;SDS011;68277;52.724;6.516;2023-08-06T13:57:29;2.35;;;1.23;;
78670;SDS011;68277;52.724;6.516;2023-08-06T13:59:54;2.50;;;1.48;;
78670;SDS011;68277;52.724;6.516;2023-08-06T14:02:20;3.03;;;2.20;;
78670;SDS011;68277;52.724;6.516;2023-08-06T14:04:45;3.80;;;2.03;;
78670;SDS011;68277;52.724;6.516;2023-08-06T14:07:11;3.13;;;1.60;;
78670;SDS011;68277;52.724;6.516;2023-08-06T14:12:09;4.03;;;1.88;;
78670;SDS011;68277;52.724;6.516;2023-08-06T14:14:34;2.60;;;2.00;;
78670;SDS011;68277;52.724;6.516;2023-08-06T14:17:00;2.85;;;1.80;;
78670;SDS011;68277;52.724;6.516;2023-08-06T14:19:26;4.30;;;2.28;;
78670;SDS011;68277;52.724;6.516;2023-08-06T14:21:51;2.85;;;1.98;;
78670;SDS011;68277;52.724;6.516;2023-08-06T14:24:17;2.38;;;1.55;;
78670;SDS011;68277;52.724;6.516;2023-08-06T14:26:43;3.97;;;2.38;;
78670;SDS011;68277;52.724;6.516;2023-08-06T14:29:09;4.90;;;2.10;;
78670;SDS011;68277;52.724;6.516;2023-08-06T14:31:34;2.55;;;1.73;;
78670;SDS011;68277;52.724;6.516;2023-08-06T14:34:00;4.82;;;2.10;;
78670;SDS011;68277;52.724;6.516;2023-08-06T14:36:26;4.50;;;2.42;;
78670;SDS011;68277;52.724;6.516;2023-08-06T14:39:17;5.35;;;2.60;;
78670;SDS011;68277;52.724;6.516;2023-08-06T14:41:42;6.07;;;2.78;;
78670;SDS011;68277;52.724;6.516;2023-08-06T14:44:10;3.85;;;2.28;;
78670;SDS011;68277;52.724;6.516;2023-08-06T14:46:35;4.97;;;2.55;;
78670;SDS011;68277;52.724;6.516;2023-08-06T14:49:01;4.60;;;2.75;;
78670;SDS011;68277;52.724;6.516;2023-08-06T14:51:26;5.60;;;3.60;;
78670;SDS011;68277;52.724;6.516;2023-08-06T14:53:53;5.95;;;2.67;;
78670;SDS011;68277;52.724;6.516;2023-08-06T14:56:18;4.55;;;2.70;;
78670;SDS011;68277;52.724;6.516;2023-08-06T14:58:44;6.30;;;3.17;;
78670;SDS011;68277;52.724;6.516;2023-08-06T15:01:09;5.65;;;2.95;;
78670;SDS011;68277;52.724;6.516;2023-08-06T15:03:38;4.75;;;2.10;;
78670;SDS011;68277;52.724;6.516;2023-08-06T15:08:50;3.60;;;2.10;;
78670;SDS011;68277;52.724;6.516;2023-08-06T15:11:16;7.88;;;2.70;;
78670;SDS011;68277;52.724;6.516;2023-08-06T15:13:41;4.07;;;2.30;;
78670;SDS011;68277;52.724;6.516;2023-08-06T15:16:07;2.80;;;2.03;;